createdAt,value
2023-03-12T00:02:11.497Z,17.55
2023-03-12T00:04:38.224Z,16.17
2023-03-12T00:07:06.586Z,15.57
2023-03-12T00:09:38.783Z,12.00
2023-03-12T00:12:06.337Z,14.55
2023-03-12T00:14:33.435Z,13.55
2023-03-12T00:17:00.223Z,11.13
2023-03-12T00:19:27.488Z,17.00
2023-03-12T00:21:54.143Z,21.17
2023-03-12T00:24:20.799Z,15.35
2023-03-12T00:26:47.547Z,13.57
2023-03-12T00:29:14.260Z,16.00
2023-03-12T00:31:40.964Z,14.43
2023-03-12T00:34:07.660Z,12.75
2023-03-12T00:36:34.605Z,12.70
2023-03-12T00:39:02.114Z,12.27
2023-03-12T00:41:30.303Z,17.30
2023-03-12T00:43:57.542Z,10.20
2023-03-12T00:46:24.546Z,9.45
2023-03-12T00:48:51.358Z,9.32
2023-03-12T00:51:18.552Z,10.48
2023-03-12T00:53:45.558Z,9.02
2023-03-12T00:56:12.345Z,10.75
2023-03-12T00:58:39.143Z,12.82
2023-03-12T01:01:06.230Z,11.65
2023-03-12T01:03:33.112Z,12.48
2023-03-12T01:05:59.878Z,10.45
2023-03-12T01:08:26.611Z,12.68
2023-03-12T01:10:53.469Z,9.07
2023-03-12T01:13:21.058Z,11.45
2023-03-12T01:15:48.069Z,12.18
2023-03-12T01:18:14.822Z,11.70
2023-03-12T01:20:41.849Z,9.05
2023-03-12T01:23:09.026Z,10.43
2023-03-12T01:25:36.910Z,8.48
2023-03-12T01:28:04.161Z,9.93
2023-03-12T01:30:31.358Z,8.32
2023-03-12T01:32:58.381Z,11.25
2023-03-12T01:35:25.635Z,14.48
2023-03-12T01:37:53.044Z,12.77
2023-03-12T01:40:25.512Z,11.57
2023-03-12T01:42:57.311Z,10.63
2023-03-12T01:46:16.826Z,9.85
2023-03-12T01:48:53.694Z,9.38
2023-03-12T01:51:26.958Z,8.52
2023-03-12T01:53:58.290Z,6.55
2023-03-12T01:56:30.209Z,6.88
2023-03-12T01:59:02.606Z,7.07
2023-03-12T02:01:30.670Z,8.70
2023-03-12T02:03:59.974Z,7.20
2023-03-12T02:06:39.668Z,10.60
2023-03-12T02:09:08.038Z,6.60
2023-03-12T02:11:34.827Z,9.07
2023-03-12T02:14:02.363Z,11.48
2023-03-12T02:16:30.151Z,15.52
2023-03-12T02:19:00.092Z,10.00
2023-03-12T02:21:33.678Z,10.82
2023-03-12T02:24:09.493Z,7.78
2023-03-12T02:29:09.464Z,12.70
2023-03-12T02:31:47.106Z,6.93
2023-03-12T02:34:13.845Z,5.35
2023-03-12T02:36:40.531Z,9.02
2023-03-12T02:39:07.743Z,12.65
2023-03-12T02:41:43.172Z,6.53
2023-03-12T02:44:33.469Z,6.13
2023-03-12T02:47:02.104Z,6.63
2023-03-12T02:49:33.353Z,9.25
2023-03-12T02:52:00.766Z,7.38
2023-03-12T02:54:28.042Z,7.10
2023-03-12T02:56:55.161Z,10.90
2023-03-12T02:59:25.940Z,7.88
2023-03-12T03:01:58.092Z,7.10
2023-03-12T03:04:26.297Z,9.10
2023-03-12T03:06:53.520Z,10.73
2023-03-12T03:09:22.309Z,6.72
2023-03-12T03:11:50.741Z,7.18
2023-03-12T03:14:18.654Z,8.50
2023-03-12T03:16:48.144Z,11.70
2023-03-12T03:19:15.114Z,7.40
2023-03-12T03:21:42.047Z,8.93
2023-03-12T03:24:08.900Z,7.10
2023-03-12T03:26:35.826Z,10.27
2023-03-12T03:29:02.789Z,5.28
2023-03-12T03:31:29.650Z,9.95
2023-03-12T03:33:56.470Z,8.80
2023-03-12T03:36:23.491Z,7.85
2023-03-12T03:39:05.143Z,6.82
2023-03-12T03:41:32.992Z,9.15
2023-03-12T03:43:59.827Z,11.82
2023-03-12T03:46:28.149Z,8.02
2023-03-12T03:49:00.926Z,8.60
2023-03-12T03:51:28.645Z,5.60
2023-03-12T03:54:02.330Z,5.85
2023-03-12T03:56:29.669Z,6.90
2023-03-12T03:58:58.444Z,6.60
2023-03-12T04:01:25.894Z,5.40
2023-03-12T04:03:52.663Z,8.20
2023-03-12T04:06:19.821Z,8.07
2023-03-12T04:08:46.841Z,8.05
2023-03-12T04:11:20.580Z,9.30
2023-03-12T04:13:49.129Z,5.28
2023-03-12T04:16:18.757Z,4.95
2023-03-12T04:18:46.078Z,10.77
2023-03-12T04:21:14.920Z,7.07
2023-03-12T04:23:42.919Z,4.95
2023-03-12T04:26:11.771Z,6.60
2023-03-12T04:28:39.161Z,6.35
2023-03-12T04:31:08.302Z,6.60
2023-03-12T04:33:40.594Z,6.50
2023-03-12T04:36:09.165Z,6.97
2023-03-12T04:38:38.672Z,8.00
2023-03-12T04:41:11.310Z,11.50
2023-03-12T04:43:41.409Z,9.98
2023-03-12T04:46:08.977Z,6.28
2023-03-12T04:48:36.645Z,4.70
2023-03-12T04:51:04.967Z,7.10
2023-03-12T04:53:32.130Z,5.80
2023-03-12T04:55:59.452Z,8.57
2023-03-12T04:58:27.576Z,8.27
2023-03-12T05:00:54.345Z,6.05
2023-03-12T05:03:22.030Z,5.95
2023-03-12T05:05:48.916Z,10.82
2023-03-12T05:08:15.905Z,6.22
2023-03-12T05:10:45.422Z,10.60
2023-03-12T05:13:21.589Z,7.80
2023-03-12T05:18:22.742Z,7.70
2023-03-12T05:21:09.731Z,12.20
2023-03-12T05:23:39.109Z,6.68
2023-03-12T05:26:06.733Z,11.13
2023-03-12T05:28:34.568Z,6.78
2023-03-12T05:31:10.606Z,7.20
2023-03-12T05:33:38.166Z,8.38
2023-03-12T05:36:05.753Z,6.07
2023-03-12T05:38:32.907Z,8.05
2023-03-12T05:41:00.784Z,13.82
2023-03-12T05:43:30.238Z,8.70
2023-03-12T05:46:03.997Z,8.25
2023-03-12T05:48:31.992Z,9.02
2023-03-12T05:50:59.035Z,9.35
2023-03-12T05:53:26.700Z,9.80
2023-03-12T05:55:54.292Z,8.88
2023-03-12T05:58:21.877Z,8.63
2023-03-12T06:00:49.538Z,7.72
2023-03-12T06:03:16.365Z,7.72
2023-03-12T06:05:45.416Z,9.13
2023-03-12T06:08:12.106Z,5.90
2023-03-12T06:10:39.663Z,8.40
2023-03-12T06:13:07.453Z,9.13
2023-03-12T06:15:34.287Z,13.60
2023-03-12T06:18:01.710Z,7.75
2023-03-12T06:20:28.573Z,10.30
2023-03-12T06:22:55.289Z,12.93
2023-03-12T06:25:22.014Z,8.95
2023-03-12T06:27:48.766Z,16.55
2023-03-12T06:30:17.852Z,9.93
2023-03-12T06:32:44.556Z,15.75
2023-03-12T06:35:11.362Z,8.25
2023-03-12T06:37:38.100Z,7.13
2023-03-12T06:40:07.541Z,9.98
2023-03-12T06:42:34.266Z,7.50
2023-03-12T06:45:00.918Z,5.97
2023-03-12T06:47:27.781Z,6.65
2023-03-12T06:49:54.430Z,5.95
2023-03-12T06:52:21.107Z,5.88
2023-03-12T06:54:47.847Z,7.07
2023-03-12T06:57:16.590Z,9.77
2023-03-12T06:59:43.492Z,12.45
2023-03-12T07:02:11.889Z,5.78
2023-03-12T07:04:38.593Z,5.40
2023-03-12T07:07:05.418Z,8.38
2023-03-12T07:09:32.071Z,7.82
2023-03-12T07:11:58.755Z,6.30
2023-03-12T07:14:25.407Z,7.85
2023-03-12T07:16:52.078Z,8.10
2023-03-12T07:19:19.472Z,5.57
2023-03-12T07:21:46.183Z,4.93
2023-03-12T07:24:12.834Z,6.07
2023-03-12T07:26:39.970Z,10.07
2023-03-12T07:29:06.691Z,9.50
2023-03-12T07:31:33.390Z,7.32
2023-03-12T07:34:00.249Z,8.27
2023-03-12T07:36:27.211Z,4.10
2023-03-12T07:38:53.953Z,6.68
2023-03-12T07:41:21.004Z,7.30
2023-03-12T07:43:47.757Z,7.63
2023-03-12T07:46:14.738Z,9.43
2023-03-12T07:48:44.095Z,6.90
2023-03-12T07:51:11.195Z,9.15
2023-03-12T07:53:37.854Z,12.35
2023-03-12T07:56:05.060Z,5.15
2023-03-12T07:58:31.837Z,6.70
2023-03-12T08:00:58.565Z,8.02
2023-03-12T08:03:25.794Z,7.72
2023-03-12T08:06:02.496Z,9.07
2023-03-12T08:08:31.002Z,6.38
2023-03-12T08:11:03.853Z,4.55
2023-03-12T08:13:31.586Z,6.68
2023-03-12T08:15:58.513Z,5.38
2023-03-12T08:18:25.837Z,6.43
2023-03-12T08:20:55.415Z,6.35
2023-03-12T08:23:22.720Z,8.23
2023-03-12T08:25:50.943Z,6.10
2023-03-12T08:28:19.523Z,7.35
2023-03-12T08:30:54.657Z,7.63
2023-03-12T08:33:22.476Z,5.45
2023-03-12T08:35:49.439Z,6.50
2023-03-12T08:38:16.128Z,7.65
2023-03-12T08:40:43.174Z,8.63
2023-03-12T08:43:10.473Z,8.45
2023-03-12T08:45:37.769Z,16.48
2023-03-12T08:48:06.385Z,11.18
2023-03-12T08:50:33.305Z,12.13
2023-03-12T08:53:00.116Z,11.35
2023-03-12T08:55:30.001Z,5.70
2023-03-12T08:57:56.878Z,6.32
2023-03-12T09:00:25.058Z,8.40
2023-03-12T09:02:53.554Z,8.15
2023-03-12T09:05:20.836Z,8.75
2023-03-12T09:07:49.969Z,11.30
2023-03-12T09:10:17.676Z,4.82
2023-03-12T09:12:45.008Z,13.20
2023-03-12T09:15:11.742Z,14.85
2023-03-12T09:17:38.828Z,9.88
2023-03-12T09:20:09.328Z,9.52
2023-03-12T09:22:37.199Z,10.98
2023-03-12T09:25:06.051Z,8.55
2023-03-12T09:27:37.833Z,10.15
2023-03-12T09:30:07.836Z,8.23
2023-03-12T09:32:34.927Z,7.03
2023-03-12T09:35:01.661Z,13.13
2023-03-12T09:37:28.444Z,11.85
2023-03-12T09:39:55.208Z,9.52
2023-03-12T09:42:41.871Z,8.95
2023-03-12T09:45:18.333Z,13.05
2023-03-12T09:47:58.922Z,13.98
2023-03-12T09:50:43.669Z,16.23
2023-03-12T09:53:32.336Z,12.63
2023-03-12T09:56:02.560Z,14.05
2023-03-12T09:58:38.417Z,11.05
2023-03-12T10:01:15.306Z,10.65
2023-03-12T10:04:25.746Z,11.57
2023-03-12T10:07:24.348Z,13.30
2023-03-12T10:10:15.531Z,15.05
2023-03-12T10:12:54.368Z,14.02
2023-03-12T10:15:54.821Z,14.40
2023-03-12T10:18:53.511Z,14.10
2023-03-12T10:21:59.210Z,13.32
2023-03-12T10:24:47.384Z,14.50
2023-03-12T10:27:18.712Z,15.38
2023-03-12T10:29:50.661Z,12.63
2023-03-12T10:32:26.591Z,14.45
2023-03-12T10:37:46.070Z,12.02
2023-03-12T10:40:23.139Z,12.75
2023-03-12T10:42:50.448Z,13.77
2023-03-12T10:45:46.616Z,14.57
2023-03-12T10:48:22.935Z,13.13
2023-03-12T10:51:08.474Z,13.90
2023-03-12T10:53:47.964Z,13.27
2023-03-12T10:56:20.235Z,11.98
2023-03-12T10:58:53.428Z,14.00
2023-03-12T11:01:31.941Z,13.07
2023-03-12T11:04:23.980Z,11.63
2023-03-12T11:07:35.559Z,12.57
2023-03-12T11:10:08.142Z,10.35
2023-03-12T11:12:39.707Z,10.50
2023-03-12T11:15:26.394Z,13.10
2023-03-12T11:18:11.988Z,16.77
2023-03-12T11:20:38.663Z,14.30
2023-03-12T11:23:19.982Z,13.30
2023-03-12T11:26:23.932Z,13.73
2023-03-12T11:29:12.023Z,15.63
2023-03-12T11:31:47.158Z,15.05
2023-03-12T11:34:29.596Z,14.93
2023-03-12T11:37:28.691Z,14.35
2023-03-12T11:40:10.017Z,12.40
2023-03-12T11:43:03.836Z,13.93
2023-03-12T11:46:17.525Z,10.95
2023-03-12T11:49:09.628Z,13.80
2023-03-12T11:51:57.610Z,15.02
2023-03-12T11:54:39.440Z,14.27
2023-03-12T11:57:38.431Z,12.88
2023-03-12T12:00:17.370Z,12.55
2023-03-12T12:03:11.885Z,16.00
2023-03-12T12:06:12.254Z,13.93
2023-03-12T12:09:23.542Z,13.95
2023-03-12T12:12:20.887Z,14.55
2023-03-12T12:15:04.193Z,16.98
2023-03-12T12:17:56.554Z,16.95
2023-03-12T12:20:48.351Z,16.02
2023-03-12T12:23:26.316Z,16.50
2023-03-12T12:26:08.383Z,21.23
2023-03-12T12:29:10.468Z,22.38
2023-03-12T12:31:54.800Z,28.15
2023-03-12T12:34:54.570Z,24.23
2023-03-12T12:37:35.226Z,21.73
2023-03-12T12:40:20.002Z,28.42
2023-03-12T12:43:19.385Z,33.78
2023-03-12T12:45:48.496Z,27.52
2023-03-12T12:48:29.308Z,25.83
2023-03-12T12:51:00.107Z,24.05
2023-03-12T12:54:01.573Z,30.60
2023-03-12T12:56:54.089Z,21.58
2023-03-12T13:00:14.721Z,28.75
2023-03-12T13:02:45.622Z,20.45
2023-03-12T13:05:50.235Z,22.95
2023-03-12T13:08:44.600Z,14.98
2023-03-12T13:11:20.264Z,20.20
2023-03-12T13:14:10.853Z,16.90
2023-03-12T13:16:45.807Z,23.45
2023-03-12T13:19:15.884Z,19.67
2023-03-12T13:22:10.548Z,20.55
2023-03-12T13:25:10.385Z,16.67
2023-03-12T13:27:45.839Z,16.70
2023-03-12T13:30:34.361Z,25.95
2023-03-12T13:33:03.708Z,20.25
2023-03-12T13:35:37.746Z,19.88
2023-03-12T13:38:18.012Z,20.73
2023-03-12T13:41:01.993Z,19.05
2023-03-12T13:43:37.635Z,21.58
2023-03-12T13:48:49.103Z,20.83
2023-03-12T13:51:20.956Z,20.95
2023-03-12T13:54:00.123Z,20.55
2023-03-12T13:56:31.733Z,17.52
2023-03-12T13:59:13.748Z,20.17
2023-03-12T14:01:50.646Z,19.92
2023-03-12T14:04:34.631Z,25.52
2023-03-12T14:07:30.680Z,24.13
2023-03-12T14:10:19.381Z,21.88
2023-03-12T14:13:04.584Z,21.27
2023-03-12T14:15:41.953Z,27.60
2023-03-12T14:18:37.250Z,21.90
2023-03-12T14:21:13.112Z,23.35
2023-03-12T14:23:59.365Z,14.60
2023-03-12T14:29:30.195Z,15.85
2023-03-12T14:32:03.384Z,15.70
2023-03-12T14:34:55.150Z,21.95
2023-03-12T14:38:00.320Z,25.58
2023-03-12T14:40:45.856Z,20.45
2023-03-12T14:43:35.029Z,17.48
2023-03-12T14:46:05.651Z,19.05
2023-03-12T14:48:37.318Z,21.90
2023-03-12T14:51:07.440Z,26.30
2023-03-12T14:53:37.444Z,19.00
2023-03-12T14:56:10.245Z,22.27
2023-03-12T14:58:47.665Z,19.10
2023-03-12T15:01:24.348Z,23.70
2023-03-12T15:03:55.309Z,13.88
2023-03-12T15:06:34.343Z,20.90
2023-03-12T15:09:05.597Z,25.40
2023-03-12T15:11:37.176Z,22.63
2023-03-12T15:14:08.134Z,20.88
2023-03-12T15:16:36.110Z,26.50
2023-03-12T15:19:06.694Z,19.90
2023-03-12T15:21:35.520Z,20.17
2023-03-12T15:24:04.078Z,21.85
2023-03-12T15:26:34.822Z,25.88
2023-03-12T15:29:29.087Z,18.67
2023-03-12T15:31:59.134Z,31.08
2023-03-12T15:34:36.924Z,26.50
2023-03-12T15:37:23.053Z,25.23
2023-03-12T15:39:54.436Z,24.40
2023-03-12T15:42:25.529Z,24.77
2023-03-12T15:44:59.523Z,28.20
2023-03-12T15:47:33.500Z,23.83
2023-03-12T15:50:09.744Z,16.45
2023-03-12T15:52:36.629Z,24.17
2023-03-12T15:55:06.386Z,25.02
2023-03-12T15:57:59.966Z,21.63
2023-03-12T16:00:43.975Z,23.30
2023-03-12T16:03:19.802Z,16.88
2023-03-12T16:08:20.839Z,18.83
2023-03-12T16:10:50.056Z,23.00
2023-03-12T16:13:20.902Z,23.00
2023-03-12T16:15:48.295Z,28.02
2023-03-12T16:18:22.604Z,23.80
2023-03-12T16:20:51.783Z,21.30
2023-03-12T16:23:19.329Z,21.63
2023-03-12T16:25:55.662Z,19.98
2023-03-12T16:28:23.734Z,25.00
2023-03-12T16:30:51.462Z,26.98
2023-03-12T16:33:21.806Z,23.70
2023-03-12T16:35:48.564Z,32.90
2023-03-12T16:38:15.815Z,28.15
2023-03-12T16:40:49.398Z,23.77
2023-03-12T16:43:25.198Z,23.65
2023-03-12T16:48:24.189Z,27.70
2023-03-12T16:50:54.906Z,24.17
2023-03-12T16:53:23.358Z,26.45
2023-03-12T16:55:56.871Z,25.77
2023-03-12T16:58:25.456Z,27.42
2023-03-12T17:00:54.261Z,24.83
2023-03-12T17:03:38.054Z,18.77
2023-03-12T17:06:06.989Z,19.23
2023-03-12T17:08:35.828Z,20.98
2023-03-12T17:11:02.695Z,25.63
2023-03-12T17:13:29.784Z,26.88
2023-03-12T17:15:56.931Z,31.13
2023-03-12T17:18:24.026Z,32.83
2023-03-12T17:20:51.788Z,20.30
2023-03-12T17:23:19.036Z,34.08
2023-03-12T17:25:46.154Z,20.67
2023-03-12T17:28:15.211Z,26.25
2023-03-12T17:30:42.839Z,22.17
2023-03-12T17:33:16.589Z,20.20
2023-03-12T17:35:44.171Z,26.27
2023-03-12T17:38:12.531Z,19.45
2023-03-12T17:40:43.997Z,21.92
2023-03-12T17:43:10.865Z,17.88
2023-03-12T17:45:37.686Z,19.27
2023-03-12T17:48:04.812Z,15.10
2023-03-12T17:50:31.667Z,21.63
2023-03-12T17:52:58.359Z,22.60
2023-03-12T17:55:25.050Z,26.73
2023-03-12T17:57:51.721Z,26.95
2023-03-12T18:00:21.464Z,26.45
2023-03-12T18:02:48.645Z,25.33
2023-03-12T18:05:15.468Z,27.48
2023-03-12T18:07:42.202Z,25.33
2023-03-12T18:10:13.729Z,26.23
2023-03-12T18:12:41.148Z,25.02
2023-03-12T18:15:12.321Z,21.83
2023-03-12T18:17:44.747Z,28.02
2023-03-12T18:20:16.654Z,28.27
2023-03-12T18:22:45.867Z,34.47
2023-03-12T18:25:12.822Z,23.77
2023-03-12T18:27:39.654Z,22.92
2023-03-12T18:30:12.536Z,23.92
2023-03-12T18:32:40.515Z,24.33
2023-03-12T18:35:08.558Z,23.55
2023-03-12T18:37:35.415Z,21.50
2023-03-12T18:40:02.119Z,22.58
2023-03-12T18:42:28.846Z,30.85
2023-03-12T18:44:55.603Z,20.55
2023-03-12T18:47:23.056Z,25.05
2023-03-12T18:49:53.031Z,33.05
2023-03-12T18:52:19.834Z,24.67
2023-03-12T18:54:46.587Z,26.02
2023-03-12T18:57:13.387Z,24.83
2023-03-12T18:59:40.140Z,25.00
2023-03-12T19:02:07.416Z,33.85
2023-03-12T19:04:34.247Z,21.00
2023-03-12T19:07:00.971Z,24.83
2023-03-12T19:09:27.699Z,22.77
2023-03-12T19:11:54.453Z,24.73
2023-03-12T19:14:21.255Z,24.00
2023-03-12T19:16:47.935Z,32.03
2023-03-12T19:19:14.728Z,25.33
2023-03-12T19:21:41.491Z,27.05
2023-03-12T19:24:08.423Z,26.50
2023-03-12T19:26:35.140Z,18.35
2023-03-12T19:29:01.879Z,21.70
2023-03-12T19:31:28.677Z,18.13
2023-03-12T19:33:55.483Z,17.83
2023-03-12T19:36:22.237Z,25.08
2023-03-12T19:38:49.001Z,20.55
2023-03-12T19:41:16.656Z,24.83
2023-03-12T19:43:43.450Z,19.33
2023-03-12T19:46:10.251Z,28.02
2023-03-12T19:48:36.969Z,24.80
2023-03-12T19:51:09.666Z,24.92
2023-03-12T19:53:37.005Z,21.85
2023-03-12T19:56:05.268Z,41.95
2023-03-12T19:58:32.046Z,29.58
2023-03-12T20:01:01.212Z,32.55
2023-03-12T20:03:30.636Z,21.70
2023-03-12T20:05:57.345Z,21.83
2023-03-12T20:08:30.195Z,18.02
2023-03-12T20:11:09.792Z,23.05
2023-03-12T20:13:39.975Z,21.35
2023-03-12T20:16:07.936Z,19.98
2023-03-12T20:18:34.702Z,20.27
2023-03-12T20:21:01.433Z,21.90
2023-03-12T20:23:28.138Z,23.75
2023-03-12T20:25:54.803Z,24.77
2023-03-12T20:28:21.565Z,27.70
2023-03-12T20:30:48.649Z,20.88
2023-03-12T20:33:15.557Z,19.13
2023-03-12T20:35:42.354Z,27.13
2023-03-12T20:38:09.431Z,21.73
2023-03-12T20:40:36.688Z,25.75
2023-03-12T20:43:04.928Z,34.00
2023-03-12T20:45:33.527Z,29.75
2023-03-12T20:48:00.859Z,21.95
2023-03-12T20:50:28.807Z,22.02
2023-03-12T20:52:55.592Z,26.92
2023-03-12T20:55:22.491Z,29.63
2023-03-12T20:57:49.415Z,17.08
2023-03-12T21:00:16.736Z,26.10
2023-03-12T21:02:43.558Z,24.48
2023-03-12T21:05:11.425Z,19.25
2023-03-12T21:07:38.173Z,28.58
2023-03-12T21:10:05.894Z,24.65
2023-03-12T21:12:32.655Z,15.02
2023-03-12T21:15:06.145Z,27.05
2023-03-12T21:17:34.752Z,16.35
2023-03-12T21:20:09.649Z,21.08
2023-03-12T21:22:37.338Z,27.73
2023-03-12T21:25:04.953Z,17.67
2023-03-12T21:27:44.436Z,23.13
2023-03-12T21:30:12.450Z,21.52
2023-03-12T21:32:39.158Z,27.83
2023-03-12T21:35:06.374Z,27.38
2023-03-12T21:37:33.075Z,20.00
2023-03-12T21:40:01.385Z,23.15
2023-03-12T21:42:28.803Z,18.58
2023-03-12T21:44:55.475Z,42.08
2023-03-12T21:47:22.876Z,23.05
2023-03-12T21:49:49.635Z,17.90
2023-03-12T21:52:16.319Z,17.80
2023-03-12T21:54:42.970Z,19.70
2023-03-12T21:57:09.774Z,23.20
2023-03-12T21:59:36.483Z,15.88
2023-03-12T22:02:03.182Z,18.48
2023-03-12T22:04:30.151Z,19.48
2023-03-12T22:06:56.927Z,21.35
2023-03-12T22:09:23.669Z,17.85
2023-03-12T22:11:50.296Z,21.77
2023-03-12T22:14:17.082Z,25.05
2023-03-12T22:16:44.057Z,27.83
2023-03-12T22:19:10.865Z,16.75
2023-03-12T22:21:37.933Z,20.73
2023-03-12T22:24:05.144Z,17.98
2023-03-12T22:26:31.868Z,23.30
2023-03-12T22:29:02.329Z,24.15
2023-03-12T22:31:30.115Z,21.02
2023-03-12T22:33:57.614Z,19.45
2023-03-12T22:36:24.418Z,19.95
2023-03-12T22:38:51.387Z,21.25
2023-03-12T22:41:23.390Z,22.23
2023-03-12T22:43:53.170Z,16.45
2023-03-12T22:46:22.450Z,10.68
2023-03-12T22:48:54.870Z,19.75
2023-03-12T22:51:22.043Z,18.65
2023-03-12T22:53:48.867Z,15.32
2023-03-12T22:56:17.716Z,16.08
2023-03-12T22:58:44.429Z,19.80
2023-03-12T23:01:18.319Z,15.60
2023-03-12T23:03:46.237Z,17.52
2023-03-12T23:06:16.910Z,15.88
2023-03-12T23:08:46.203Z,14.10
2023-03-12T23:11:14.977Z,24.08
2023-03-12T23:13:44.559Z,18.45
2023-03-12T23:16:19.105Z,11.23
2023-03-12T23:18:46.767Z,22.17
2023-03-12T23:21:17.467Z,17.08
2023-03-12T23:23:45.248Z,14.75
2023-03-12T23:26:21.682Z,21.83
2023-03-12T23:28:48.830Z,17.65
2023-03-12T23:31:16.838Z,15.90
2023-03-12T23:33:44.471Z,14.63
2023-03-12T23:36:20.240Z,21.48
2023-03-12T23:38:48.469Z,21.95
2023-03-12T23:41:24.727Z,13.05
2023-03-12T23:43:52.828Z,15.20
2023-03-12T23:46:20.234Z,11.95
2023-03-12T23:48:47.326Z,13.80
2023-03-12T23:51:26.444Z,24.13
2023-03-12T23:53:58.302Z,18.08
2023-03-12T23:56:27.535Z,15.30
2023-03-12T23:58:54.301Z,14.93
